Riyadh, Saudi Arabia

3:54 AM AST on February 25, 2017 (GMT +0300)
Panorama | | Change Station

Elev 2119 ft 24.72 °N, 46.63 °E | Updated 3 minutes ago

Clear
Clear
59.5 °F
Feels Like 59.5 °F
N
0.6
Wind Variable Wind from North
Gusts 2.5 mph

Today
High -- | Low -- °F
--% Chance of Precip.
Yesterday
High -- | Low -- °F
Precip. -- in
Pressure 30.24 in
Visibility -9999.0 miles
Clouds
Dew Point 43 °F
Humidity 53%
Rainfall Not available.
Snow Depth Not available.
6:19 AM 5:53 PM
Waning Crescent, 3% visible
METAR OERK 250000Z 00000KT CAVOK 10/06 Q1024 NOSIG
Pressure 30.24 in
Visibility -9999.0 miles
Clouds
Dew Point 43 °F
Humidity 53%
Rainfall Not available.
Snow Depth Not available.
6:19 AM 5:53 PM
Waning Crescent, 3% visible
METAR OERK 250000Z 00000KT CAVOK 10/06 Q1024 NOSIG

Get Your Daily Forecast Email!

Thanks for signing up!

Be on the lookout for a verification email in your inbox.

You'll start receiving the daily forecast at 8 AM.

×

10-Day Weather Forecast

No radar image for this location.
×

Almanac

Astronomy

Feb. 25, 2017 Rise Set
Actual Time
Civil Twilight
Nautical Twilight
Astronomical Twilight
Moon
Length of Visible Light
Length of Day
Tomorrow will be .
, % of the Moon is Illuminated

Today's Extremes

Country Highs Country Lows

Community

WunderPhotos

Upload Photos

1,962,540 photos uploaded!

WunderBlog® & News

Nearby

Air Quality

  Air Quality AQ Index Pollutant
Not available.

Snow Depth

Station Depth Elevation

Earthquake Activity

City Distance Mag. Time & Date
Minimum magnitude displayed is 2.5.

Coastal Water Temperatures

Place Temperature

Stations

Nearby Weather Stations

Station Location Temp. Windchill Dew Point Humidity Wind Precip. Elev Updated Type